Terminal Aerodrome Forecast
Issued by NWS Sterling, VA

Current Version | Previous Version | Text Only | Print | Product List | Glossary Off
Versions: 1 2 3 4 5 6 7 8 9 10 11 12 13 14 15 16 17 18 19 20 21 22 23

000
FTUS41 KLWX 181000 AAB
TAFIAD
TAF AMD
KIAD 181054Z 1811/1912 VRB03KT P6SM FEW020 BKN250
     FM181300 VRB03KT P6SM BKN200
     FM181900 13007KT P6SM BKN200
     FM190400 VRB03KT P6SM BKN200=

USA.gov is the U.S. government's official web portal to all federal, state and local government web resources and services.